KEAN

Details ICAO KEAN
Name PHIFER AFLD
Region United States
Timezone America/Denver (UTC-7.0)
Plans Departing 1
Arriving 4
Stats Elevation 4,774 ft / 1,455 m (AMSL)
Location 42.055548° -104.928676°
Runways 1
Magnetic Variation 8.383° E
Sunrise 2017-12-12 14:20:19 UTC / 2017-12-12 07:20:19 Local
Sunset 2017-12-12 23:29:42 UTC / 2017-12-12 16:29:42 Local
Advertisement - Login to hide

Runways

ID Width Length Bearing (true) Bearing (mag) Surface Threshold Offset Overrun Length
08 75 ft / 23 m 5,887 ft / 1,794 m 89.39° 81.01° Asphalt 0 ft / 0 m 0 ft / 0 m
26 75 ft / 23 m 5,887 ft / 1,794 m 269.41° 261.03° Asphalt 0 ft / 0 m 0 ft / 0 m

Map

Weather


0- 5 10 15 20 25 30 35+ Temperature / ° C

Clouds and Precipitation
Forecast for 2017-12-13 00:00 UTC. Updated 2 hours ago

Ground ~20,000 ft ~40,000 ft Winds

METAR

KEAN 122315Z AUTO 23012G20KT 10SM CLR 12/M11 A3011 RMK AO2

TAF

Not found

Frequencies

Unicom 122.90 MHz CTAF
Warning: Do not use this data for real-world aviation or navigation. No guarantee of current accuracy is given.